sensor_id;sensor_type;location;lat;lon;timestamp;P1;durP1;ratioP1;P2;durP2;ratioP2
24337;SDS011;12457;50.832;4.346;2023-11-19T00:00:11;10.73;;;3.72;;
24337;SDS011;12457;50.832;4.346;2023-11-19T00:02:38;7.43;;;3.70;;
24337;SDS011;12457;50.832;4.346;2023-11-19T00:05:04;10.20;;;3.88;;
24337;SDS011;12457;50.832;4.346;2023-11-19T00:07:34;9.45;;;4.10;;
24337;SDS011;12457;50.832;4.346;2023-11-19T00:10:15;11.60;;;3.80;;
24337;SDS011;12457;50.832;4.346;2023-11-19T00:12:44;10.85;;;3.70;;
24337;SDS011;12457;50.832;4.346;2023-11-19T00:15:11;15.48;;;3.75;;
24337;SDS011;12457;50.832;4.346;2023-11-19T00:17:41;11.60;;;3.60;;
24337;SDS011;12457;50.832;4.346;2023-11-19T00:20:11;10.80;;;3.00;;
24337;SDS011;12457;50.832;4.346;2023-11-19T00:22:37;12.18;;;3.70;;
24337;SDS011;12457;50.832;4.346;2023-11-19T00:27:57;11.05;;;3.80;;
24337;SDS011;12457;50.832;4.346;2023-11-19T00:30:24;16.00;;;3.47;;
24337;SDS011;12457;50.832;4.346;2023-11-19T00:32:50;10.02;;;2.92;;
24337;SDS011;12457;50.832;4.346;2023-11-19T00:35:16;14.20;;;3.53;;
24337;SDS011;12457;50.832;4.346;2023-11-19T00:37:43;14.43;;;3.90;;
24337;SDS011;12457;50.832;4.346;2023-11-19T00:40:10;13.68;;;3.20;;
24337;SDS011;12457;50.832;4.346;2023-11-19T00:42:36;18.50;;;3.80;;
24337;SDS011;12457;50.832;4.346;2023-11-19T00:45:02;13.13;;;3.50;;
24337;SDS011;12457;50.832;4.346;2023-11-19T00:47:29;12.75;;;3.42;;
24337;SDS011;12457;50.832;4.346;2023-11-19T00:49:56;14.45;;;3.20;;
24337;SDS011;12457;50.832;4.346;2023-11-19T00:52:21;12.27;;;3.58;;
24337;SDS011;12457;50.832;4.346;2023-11-19T00:54:59;16.50;;;3.00;;
24337;SDS011;12457;50.832;4.346;2023-11-19T00:57:25;23.63;;;3.50;;
24337;SDS011;12457;50.832;4.346;2023-11-19T00:59:53;19.60;;;3.67;;
24337;SDS011;12457;50.832;4.346;2023-11-19T01:02:18;17.88;;;3.28;;
24337;SDS011;12457;50.832;4.346;2023-11-19T01:04:44;17.45;;;3.15;;
24337;SDS011;12457;50.832;4.346;2023-11-19T01:07:10;22.77;;;3.80;;
24337;SDS011;12457;50.832;4.346;2023-11-19T01:09:41;10.80;;;3.00;;
24337;SDS011;12457;50.832;4.346;2023-11-19T01:12:07;14.60;;;3.55;;
24337;SDS011;12457;50.832;4.346;2023-11-19T01:14:34;20.77;;;3.47;;
24337;SDS011;12457;50.832;4.346;2023-11-19T01:17:00;20.33;;;3.15;;
24337;SDS011;12457;50.832;4.346;2023-11-19T01:19:26;20.05;;;3.10;;
24337;SDS011;12457;50.832;4.346;2023-11-19T01:21:53;21.15;;;3.20;;
24337;SDS011;12457;50.832;4.346;2023-11-19T01:24:19;21.42;;;3.10;;
24337;SDS011;12457;50.832;4.346;2023-11-19T01:26:48;13.27;;;3.47;;
24337;SDS011;12457;50.832;4.346;2023-11-19T01:29:14;18.73;;;3.25;;
24337;SDS011;12457;50.832;4.346;2023-11-19T01:31:44;13.73;;;3.65;;
24337;SDS011;12457;50.832;4.346;2023-11-19T01:34:16;14.65;;;2.65;;
24337;SDS011;12457;50.832;4.346;2023-11-19T01:36:41;26.98;;;3.60;;
24337;SDS011;12457;50.832;4.346;2023-11-19T01:39:07;23.75;;;3.85;;
24337;SDS011;12457;50.832;4.346;2023-11-19T01:41:38;20.67;;;3.58;;
24337;SDS011;12457;50.832;4.346;2023-11-19T01:44:05;21.48;;;3.67;;
24337;SDS011;12457;50.832;4.346;2023-11-19T01:46:32;28.83;;;4.60;;
24337;SDS011;12457;50.832;4.346;2023-11-19T01:48:59;38.55;;;4.53;;
24337;SDS011;12457;50.832;4.346;2023-11-19T01:51:26;22.52;;;3.38;;
24337;SDS011;12457;50.832;4.346;2023-11-19T01:53:53;30.20;;;3.72;;
24337;SDS011;12457;50.832;4.346;2023-11-19T01:56:21;16.77;;;3.45;;
24337;SDS011;12457;50.832;4.346;2023-11-19T01:58:48;25.30;;;3.67;;
24337;SDS011;12457;50.832;4.346;2023-11-19T02:01:14;21.98;;;3.25;;
24337;SDS011;12457;50.832;4.346;2023-11-19T02:03:40;29.42;;;4.55;;
24337;SDS011;12457;50.832;4.346;2023-11-19T02:06:10;25.15;;;4.03;;
24337;SDS011;12457;50.832;4.346;2023-11-19T02:08:37;22.90;;;4.10;;
24337;SDS011;12457;50.832;4.346;2023-11-19T02:11:04;32.55;;;3.63;;
24337;SDS011;12457;50.832;4.346;2023-11-19T02:13:32;24.13;;;3.75;;
24337;SDS011;12457;50.832;4.346;2023-11-19T02:15:58;25.85;;;4.00;;
24337;SDS011;12457;50.832;4.346;2023-11-19T02:18:25;29.08;;;4.22;;
24337;SDS011;12457;50.832;4.346;2023-11-19T02:20:55;23.33;;;3.95;;
24337;SDS011;12457;50.832;4.346;2023-11-19T02:23:22;31.88;;;4.28;;
24337;SDS011;12457;50.832;4.346;2023-11-19T02:25:56;25.60;;;4.55;;
24337;SDS011;12457;50.832;4.346;2023-11-19T02:28:43;25.95;;;4.32;;
24337;SDS011;12457;50.832;4.346;2023-11-19T02:31:09;24.25;;;4.00;;
24337;SDS011;12457;50.832;4.346;2023-11-19T02:33:37;23.58;;;4.20;;
24337;SDS011;12457;50.832;4.346;2023-11-19T02:36:04;22.15;;;3.85;;
24337;SDS011;12457;50.832;4.346;2023-11-19T02:38:31;25.48;;;3.78;;
24337;SDS011;12457;50.832;4.346;2023-11-19T02:41:03;25.77;;;3.40;;
24337;SDS011;12457;50.832;4.346;2023-11-19T02:43:33;26.70;;;4.10;;
24337;SDS011;12457;50.832;4.346;2023-11-19T02:46:03;21.10;;;3.53;;
24337;SDS011;12457;50.832;4.346;2023-11-19T02:48:32;25.40;;;3.90;;
24337;SDS011;12457;50.832;4.346;2023-11-19T02:51:00;23.45;;;4.47;;
24337;SDS011;12457;50.832;4.346;2023-11-19T02:53:34;25.85;;;3.67;;
24337;SDS011;12457;50.832;4.346;2023-11-19T02:56:00;31.48;;;3.92;;
24337;SDS011;12457;50.832;4.346;2023-11-19T02:58:31;25.55;;;3.38;;
24337;SDS011;12457;50.832;4.346;2023-11-19T03:00:57;19.52;;;3.60;;
24337;SDS011;12457;50.832;4.346;2023-11-19T03:03:24;22.27;;;3.53;;
24337;SDS011;12457;50.832;4.346;2023-11-19T03:05:57;23.58;;;3.58;;
24337;SDS011;12457;50.832;4.346;2023-11-19T03:08:22;19.50;;;3.30;;
24337;SDS011;12457;50.832;4.346;2023-11-19T03:10:50;18.38;;;3.80;;
24337;SDS011;12457;50.832;4.346;2023-11-19T03:13:15;27.10;;;3.63;;
24337;SDS011;12457;50.832;4.346;2023-11-19T03:15:44;23.13;;;3.83;;
24337;SDS011;12457;50.832;4.346;2023-11-19T03:18:10;24.40;;;4.32;;
24337;SDS011;12457;50.832;4.346;2023-11-19T03:20:37;31.05;;;4.72;;
24337;SDS011;12457;50.832;4.346;2023-11-19T03:23:02;24.23;;;4.00;;
24337;SDS011;12457;50.832;4.346;2023-11-19T03:25:28;20.60;;;3.83;;
24337;SDS011;12457;50.832;4.346;2023-11-19T03:28:02;25.67;;;4.53;;
24337;SDS011;12457;50.832;4.346;2023-11-19T03:30:28;25.35;;;4.05;;
24337;SDS011;12457;50.832;4.346;2023-11-19T03:32:55;26.85;;;4.00;;
24337;SDS011;12457;50.832;4.346;2023-11-19T03:35:21;24.85;;;4.30;;
24337;SDS011;12457;50.832;4.346;2023-11-19T03:37:50;29.15;;;4.53;;
24337;SDS011;12457;50.832;4.346;2023-11-19T03:40:16;27.98;;;4.35;;
24337;SDS011;12457;50.832;4.346;2023-11-19T03:42:44;31.67;;;4.47;;
24337;SDS011;12457;50.832;4.346;2023-11-19T03:45:10;33.35;;;5.03;;
24337;SDS011;12457;50.832;4.346;2023-11-19T03:47:37;27.15;;;4.65;;
24337;SDS011;12457;50.832;4.346;2023-11-19T03:50:03;32.17;;;4.25;;
24337;SDS011;12457;50.832;4.346;2023-11-19T03:52:29;23.42;;;4.00;;
24337;SDS011;12457;50.832;4.346;2023-11-19T03:54:55;20.95;;;3.70;;
24337;SDS011;12457;50.832;4.346;2023-11-19T03:57:22;26.40;;;4.28;;
24337;SDS011;12457;50.832;4.346;2023-11-19T03:59:48;21.85;;;3.50;;
24337;SDS011;12457;50.832;4.346;2023-11-19T04:02:14;27.52;;;4.15;;
24337;SDS011;12457;50.832;4.346;2023-11-19T04:04:41;28.00;;;3.58;;
24337;SDS011;12457;50.832;4.346;2023-11-19T04:07:07;29.23;;;4.63;;
24337;SDS011;12457;50.832;4.346;2023-11-19T04:09:33;25.55;;;3.88;;
24337;SDS011;12457;50.832;4.346;2023-11-19T04:11:59;33.30;;;4.20;;
24337;SDS011;12457;50.832;4.346;2023-11-19T04:14:25;37.30;;;4.53;;
24337;SDS011;12457;50.832;4.346;2023-11-19T04:16:52;28.88;;;5.13;;
24337;SDS011;12457;50.832;4.346;2023-11-19T04:19:18;32.42;;;4.32;;
24337;SDS011;12457;50.832;4.346;2023-11-19T04:21:45;24.42;;;4.13;;
24337;SDS011;12457;50.832;4.346;2023-11-19T04:24:11;23.95;;;3.90;;
24337;SDS011;12457;50.832;4.346;2023-11-19T04:26:41;25.85;;;4.35;;
24337;SDS011;12457;50.832;4.346;2023-11-19T04:29:11;35.85;;;5.07;;
24337;SDS011;12457;50.832;4.346;2023-11-19T04:31:38;31.67;;;4.57;;
24337;SDS011;12457;50.832;4.346;2023-11-19T04:34:04;36.10;;;4.65;;
24337;SDS011;12457;50.832;4.346;2023-11-19T04:36:31;35.00;;;4.78;;
24337;SDS011;12457;50.832;4.346;2023-11-19T04:38:59;36.35;;;4.53;;
24337;SDS011;12457;50.832;4.346;2023-11-19T04:41:26;42.15;;;4.68;;
24337;SDS011;12457;50.832;4.346;2023-11-19T04:43:54;37.15;;;5.00;;
24337;SDS011;12457;50.832;4.346;2023-11-19T04:46:20;36.60;;;5.00;;
24337;SDS011;12457;50.832;4.346;2023-11-19T04:48:46;32.50;;;4.72;;
24337;SDS011;12457;50.832;4.346;2023-11-19T04:51:11;30.80;;;4.50;;
24337;SDS011;12457;50.832;4.346;2023-11-19T04:53:37;36.65;;;5.28;;
24337;SDS011;12457;50.832;4.346;2023-11-19T04:56:09;39.70;;;5.20;;
24337;SDS011;12457;50.832;4.346;2023-11-19T04:58:44;33.13;;;4.55;;
24337;SDS011;12457;50.832;4.346;2023-11-19T05:01:13;32.85;;;4.65;;
24337;SDS011;12457;50.832;4.346;2023-11-19T05:03:42;40.13;;;5.28;;
24337;SDS011;12457;50.832;4.346;2023-11-19T05:06:08;41.53;;;5.55;;
24337;SDS011;12457;50.832;4.346;2023-11-19T05:08:35;27.67;;;4.55;;
24337;SDS011;12457;50.832;4.346;2023-11-19T05:11:01;40.35;;;5.30;;
24337;SDS011;12457;50.832;4.346;2023-11-19T05:16:24;35.75;;;5.63;;
24337;SDS011;12457;50.832;4.346;2023-11-19T05:18:55;38.58;;;4.72;;
24337;SDS011;12457;50.832;4.346;2023-11-19T05:21:21;33.70;;;4.95;;
24337;SDS011;12457;50.832;4.346;2023-11-19T05:23:47;31.77;;;4.15;;
24337;SDS011;12457;50.832;4.346;2023-11-19T05:26:19;36.50;;;4.25;;
24337;SDS011;12457;50.832;4.346;2023-11-19T05:28:51;36.38;;;4.82;;
24337;SDS011;12457;50.832;4.346;2023-11-19T05:31:17;30.77;;;5.20;;
24337;SDS011;12457;50.832;4.346;2023-11-19T05:33:43;40.42;;;5.40;;
24337;SDS011;12457;50.832;4.346;2023-11-19T05:36:10;37.35;;;5.30;;
24337;SDS011;12457;50.832;4.346;2023-11-19T05:38:37;33.58;;;4.60;;
24337;SDS011;12457;50.832;4.346;2023-11-19T05:41:03;44.22;;;6.13;;
24337;SDS011;12457;50.832;4.346;2023-11-19T05:43:32;37.83;;;5.00;;
24337;SDS011;12457;50.832;4.346;2023-11-19T05:45:59;45.28;;;5.28;;
24337;SDS011;12457;50.832;4.346;2023-11-19T05:48:26;33.20;;;4.63;;
24337;SDS011;12457;50.832;4.346;2023-11-19T05:50:52;29.45;;;4.28;;
24337;SDS011;12457;50.832;4.346;2023-11-19T05:53:18;31.00;;;5.40;;
24337;SDS011;12457;50.832;4.346;2023-11-19T05:55:44;35.33;;;5.68;;
24337;SDS011;12457;50.832;4.346;2023-11-19T05:58:25;47.70;;;5.60;;
24337;SDS011;12457;50.832;4.346;2023-11-19T06:00:53;35.58;;;4.95;;
24337;SDS011;12457;50.832;4.346;2023-11-19T06:03:19;46.00;;;5.63;;
24337;SDS011;12457;50.832;4.346;2023-11-19T06:05:46;37.63;;;5.15;;
24337;SDS011;12457;50.832;4.346;2023-11-19T06:08:13;39.50;;;5.65;;
24337;SDS011;12457;50.832;4.346;2023-11-19T06:10:42;38.47;;;5.63;;
24337;SDS011;12457;50.832;4.346;2023-11-19T06:13:11;44.65;;;4.90;;
24337;SDS011;12457;50.832;4.346;2023-11-19T06:15:37;48.05;;;6.28;;
24337;SDS011;12457;50.832;4.346;2023-11-19T06:18:03;45.20;;;6.50;;
24337;SDS011;12457;50.832;4.346;2023-11-19T06:20:30;43.13;;;5.45;;
24337;SDS011;12457;50.832;4.346;2023-11-19T06:22:56;33.78;;;5.95;;
24337;SDS011;12457;50.832;4.346;2023-11-19T06:25:23;39.38;;;5.32;;
24337;SDS011;12457;50.832;4.346;2023-11-19T06:27:49;46.35;;;7.20;;
24337;SDS011;12457;50.832;4.346;2023-11-19T06:30:18;34.38;;;5.07;;
24337;SDS011;12457;50.832;4.346;2023-11-19T06:32:44;40.03;;;5.45;;
24337;SDS011;12457;50.832;4.346;2023-11-19T06:35:10;41.00;;;4.97;;
24337;SDS011;12457;50.832;4.346;2023-11-19T06:37:38;43.95;;;5.10;;
24337;SDS011;12457;50.832;4.346;2023-11-19T06:40:05;44.95;;;5.13;;
24337;SDS011;12457;50.832;4.346;2023-11-19T06:42:31;37.92;;;5.88;;
24337;SDS011;12457;50.832;4.346;2023-11-19T06:44:57;32.60;;;4.68;;
24337;SDS011;12457;50.832;4.346;2023-11-19T06:47:27;40.90;;;4.55;;
24337;SDS011;12457;50.832;4.346;2023-11-19T06:49:53;41.50;;;5.32;;
24337;SDS011;12457;50.832;4.346;2023-11-19T06:52:19;38.30;;;5.30;;
24337;SDS011;12457;50.832;4.346;2023-11-19T06:54:46;37.08;;;5.03;;
24337;SDS011;12457;50.832;4.346;2023-11-19T06:57:14;39.80;;;5.65;;
24337;SDS011;12457;50.832;4.346;2023-11-19T06:59:40;31.00;;;4.78;;
24337;SDS011;12457;50.832;4.346;2023-11-19T07:02:07;39.28;;;5.60;;
24337;SDS011;12457;50.832;4.346;2023-11-19T07:04:33;39.97;;;5.13;;
24337;SDS011;12457;50.832;4.346;2023-11-19T07:06:59;38.92;;;5.63;;
24337;SDS011;12457;50.832;4.346;2023-11-19T07:09:25;54.65;;;6.20;;
24337;SDS011;12457;50.832;4.346;2023-11-19T07:11:53;34.75;;;5.30;;
24337;SDS011;12457;50.832;4.346;2023-11-19T07:17:15;46.30;;;5.82;;
24337;SDS011;12457;50.832;4.346;2023-11-19T07:19:42;40.53;;;5.00;;
24337;SDS011;12457;50.832;4.346;2023-11-19T07:22:08;31.10;;;4.57;;
24337;SDS011;12457;50.832;4.346;2023-11-19T07:24:36;36.67;;;5.35;;
24337;SDS011;12457;50.832;4.346;2023-11-19T07:27:05;27.63;;;5.25;;
24337;SDS011;12457;50.832;4.346;2023-11-19T07:29:33;36.88;;;5.88;;
24337;SDS011;12457;50.832;4.346;2023-11-19T07:31:59;39.90;;;5.95;;
24337;SDS011;12457;50.832;4.346;2023-11-19T07:34:28;50.80;;;8.48;;
24337;SDS011;12457;50.832;4.346;2023-11-19T07:36:54;46.67;;;6.47;;
24337;SDS011;12457;50.832;4.346;2023-11-19T07:39:22;40.95;;;6.35;;
24337;SDS011;12457;50.832;4.346;2023-11-19T07:41:48;35.72;;;5.35;;
24337;SDS011;12457;50.832;4.346;2023-11-19T07:44:15;42.10;;;6.03;;
24337;SDS011;12457;50.832;4.346;2023-11-19T07:46:41;38.90;;;5.60;;
24337;SDS011;12457;50.832;4.346;2023-11-19T07:49:10;42.53;;;5.60;;
24337;SDS011;12457;50.832;4.346;2023-11-19T07:51:37;43.10;;;5.65;;
24337;SDS011;12457;50.832;4.346;2023-11-19T07:54:03;42.47;;;5.65;;
24337;SDS011;12457;50.832;4.346;2023-11-19T07:56:32;44.42;;;6.75;;
24337;SDS011;12457;50.832;4.346;2023-11-19T08:01:47;34.97;;;5.00;;
24337;SDS011;12457;50.832;4.346;2023-11-19T08:04:14;38.50;;;5.47;;
24337;SDS011;12457;50.832;4.346;2023-11-19T08:06:40;38.20;;;5.32;;
24337;SDS011;12457;50.832;4.346;2023-11-19T08:09:06;36.28;;;5.10;;
24337;SDS011;12457;50.832;4.346;2023-11-19T08:11:32;39.08;;;5.20;;
24337;SDS011;12457;50.832;4.346;2023-11-19T08:13:58;38.50;;;4.97;;
24337;SDS011;12457;50.832;4.346;2023-11-19T08:16:24;40.15;;;5.18;;
24337;SDS011;12457;50.832;4.346;2023-11-19T08:18:50;26.80;;;4.47;;
24337;SDS011;12457;50.832;4.346;2023-11-19T08:21:16;37.42;;;6.13;;
24337;SDS011;12457;50.832;4.346;2023-11-19T08:23:41;32.45;;;5.10;;
24337;SDS011;12457;50.832;4.346;2023-11-19T08:26:07;34.78;;;6.53;;
24337;SDS011;12457;50.832;4.346;2023-11-19T08:28:36;41.45;;;5.78;;
24337;SDS011;12457;50.832;4.346;2023-11-19T08:31:05;36.97;;;5.50;;
24337;SDS011;12457;50.832;4.346;2023-11-19T08:33:31;32.17;;;4.80;;
24337;SDS011;12457;50.832;4.346;2023-11-19T08:35:57;33.70;;;5.00;;
24337;SDS011;12457;50.832;4.346;2023-11-19T08:38:23;34.25;;;6.47;;
24337;SDS011;12457;50.832;4.346;2023-11-19T08:40:50;33.60;;;7.68;;
24337;SDS011;12457;50.832;4.346;2023-11-19T08:43:20;28.42;;;5.90;;
24337;SDS011;12457;50.832;4.346;2023-11-19T08:45:48;27.10;;;5.72;;
24337;SDS011;12457;50.832;4.346;2023-11-19T08:48:13;35.55;;;6.68;;
24337;SDS011;12457;50.832;4.346;2023-11-19T08:50:39;33.72;;;6.05;;
24337;SDS011;12457;50.832;4.346;2023-11-19T08:53:05;41.17;;;5.78;;
24337;SDS011;12457;50.832;4.346;2023-11-19T08:55:31;38.65;;;6.18;;
24337;SDS011;12457;50.832;4.346;2023-11-19T08:58:00;33.40;;;5.97;;
24337;SDS011;12457;50.832;4.346;2023-11-19T09:00:30;37.60;;;5.63;;
24337;SDS011;12457;50.832;4.346;2023-11-19T09:02:57;36.50;;;5.53;;
24337;SDS011;12457;50.832;4.346;2023-11-19T09:05:25;37.05;;;6.72;;
24337;SDS011;12457;50.832;4.346;2023-11-19T09:07:57;32.47;;;5.15;;
24337;SDS011;12457;50.832;4.346;2023-11-19T09:10:26;33.13;;;6.47;;
24337;SDS011;12457;50.832;4.346;2023-11-19T09:12:55;28.85;;;4.97;;
24337;SDS011;12457;50.832;4.346;2023-11-19T09:15:26;29.75;;;4.82;;
24337;SDS011;12457;50.832;4.346;2023-11-19T09:17:51;36.38;;;4.38;;
24337;SDS011;12457;50.832;4.346;2023-11-19T09:20:17;27.23;;;5.05;;
24337;SDS011;12457;50.832;4.346;2023-11-19T09:22:46;29.75;;;4.40;;
24337;SDS011;12457;50.832;4.346;2023-11-19T09:25:13;35.05;;;4.13;;
24337;SDS011;12457;50.832;4.346;2023-11-19T09:27:42;25.02;;;4.53;;
24337;SDS011;12457;50.832;4.346;2023-11-19T09:30:20;31.15;;;5.35;;
24337;SDS011;12457;50.832;4.346;2023-11-19T09:32:45;34.50;;;7.00;;
24337;SDS011;12457;50.832;4.346;2023-11-19T09:35:11;27.75;;;4.72;;
24337;SDS011;12457;50.832;4.346;2023-11-19T09:37:39;28.33;;;5.93;;
24337;SDS011;12457;50.832;4.346;2023-11-19T09:40:07;37.03;;;7.05;;
24337;SDS011;12457;50.832;4.346;2023-11-19T09:42:38;28.70;;;7.03;;
24337;SDS011;12457;50.832;4.346;2023-11-19T09:45:15;28.88;;;5.85;;
24337;SDS011;12457;50.832;4.346;2023-11-19T09:47:43;28.50;;;7.90;;
24337;SDS011;12457;50.832;4.346;2023-11-19T09:50:30;33.65;;;10.23;;
24337;SDS011;12457;50.832;4.346;2023-11-19T09:52:57;62.88;;;27.58;;
24337;SDS011;12457;50.832;4.346;2023-11-19T09:55:23;40.17;;;14.63;;
24337;SDS011;12457;50.832;4.346;2023-11-19T09:57:49;32.17;;;9.32;;
24337;SDS011;12457;50.832;4.346;2023-11-19T10:00:17;28.77;;;7.00;;
24337;SDS011;12457;50.832;4.346;2023-11-19T10:02:46;24.92;;;5.20;;
24337;SDS011;12457;50.832;4.346;2023-11-19T10:05:13;80.05;;;35.33;;
24337;SDS011;12457;50.832;4.346;2023-11-19T10:07:41;55.70;;;18.67;;
24337;SDS011;12457;50.832;4.346;2023-11-19T10:10:07;30.67;;;9.50;;
24337;SDS011;12457;50.832;4.346;2023-11-19T10:12:35;75.07;;;37.88;;
24337;SDS011;12457;50.832;4.346;2023-11-19T10:15:03;52.75;;;22.23;;
24337;SDS011;12457;50.832;4.346;2023-11-19T10:17:32;49.10;;;21.25;;
24337;SDS011;12457;50.832;4.346;2023-11-19T10:19:59;32.38;;;7.30;;
24337;SDS011;12457;50.832;4.346;2023-11-19T10:22:25;50.42;;;18.00;;
24337;SDS011;12457;50.832;4.346;2023-11-19T10:24:52;38.10;;;8.27;;
24337;SDS011;12457;50.832;4.346;2023-11-19T10:27:20;28.83;;;7.20;;
24337;SDS011;12457;50.832;4.346;2023-11-19T10:29:50;31.27;;;9.55;;
24337;SDS011;12457;50.832;4.346;2023-11-19T10:32:16;33.75;;;6.38;;
24337;SDS011;12457;50.832;4.346;2023-11-19T10:34:42;36.97;;;12.13;;
24337;SDS011;12457;50.832;4.346;2023-11-19T10:37:08;39.97;;;12.05;;
24337;SDS011;12457;50.832;4.346;2023-11-19T10:39:52;25.60;;;5.55;;
24337;SDS011;12457;50.832;4.346;2023-11-19T10:42:20;32.10;;;8.00;;
24337;SDS011;12457;50.832;4.346;2023-11-19T10:44:46;30.48;;;6.30;;
24337;SDS011;12457;50.832;4.346;2023-11-19T10:47:13;29.42;;;7.20;;
24337;SDS011;12457;50.832;4.346;2023-11-19T10:49:43;21.13;;;4.50;;
24337;SDS011;12457;50.832;4.346;2023-11-19T10:52:08;23.40;;;6.55;;
24337;SDS011;12457;50.832;4.346;2023-11-19T10:54:34;21.38;;;4.82;;
24337;SDS011;12457;50.832;4.346;2023-11-19T10:57:02;34.67;;;10.77;;
24337;SDS011;12457;50.832;4.346;2023-11-19T10:59:29;50.03;;;18.05;;
24337;SDS011;12457;50.832;4.346;2023-11-19T11:02:00;28.45;;;9.80;;
24337;SDS011;12457;50.832;4.346;2023-11-19T11:04:30;31.88;;;6.47;;
24337;SDS011;12457;50.832;4.346;2023-11-19T11:07:02;23.77;;;5.47;;
24337;SDS011;12457;50.832;4.346;2023-11-19T11:09:29;41.47;;;7.32;;
24337;SDS011;12457;50.832;4.346;2023-11-19T11:11:56;51.38;;;23.75;;
24337;SDS011;12457;50.832;4.346;2023-11-19T11:14:24;34.55;;;9.48;;
24337;SDS011;12457;50.832;4.346;2023-11-19T11:16:52;31.60;;;5.55;;
24337;SDS011;12457;50.832;4.346;2023-11-19T11:19:21;32.00;;;5.22;;
24337;SDS011;12457;50.832;4.346;2023-11-19T11:21:52;29.58;;;5.22;;
24337;SDS011;12457;50.832;4.346;2023-11-19T11:33:19;34.67;;;9.00;;
24337;SDS011;12457;50.832;4.346;2023-11-19T11:36:11;32.22;;;8.73;;
24337;SDS011;12457;50.832;4.346;2023-11-19T11:38:44;31.23;;;7.97;;
24337;SDS011;12457;50.832;4.346;2023-11-19T11:41:21;38.88;;;8.63;;
24337;SDS011;12457;50.832;4.346;2023-11-19T11:43:53;33.05;;;7.25;;
24337;SDS011;12457;50.832;4.346;2023-11-19T11:49:02;37.60;;;6.90;;
24337;SDS011;12457;50.832;4.346;2023-11-19T11:57:10;34.88;;;10.55;;
24337;SDS011;12457;50.832;4.346;2023-11-19T12:02:13;28.83;;;6.13;;
24337;SDS011;12457;50.832;4.346;2023-11-19T12:04:41;23.45;;;6.30;;
24337;SDS011;12457;50.832;4.346;2023-11-19T12:07:12;36.95;;;10.82;;
24337;SDS011;12457;50.832;4.346;2023-11-19T12:09:47;32.83;;;10.30;;
24337;SDS011;12457;50.832;4.346;2023-11-19T12:12:18;19.58;;;6.35;;
24337;SDS011;12457;50.832;4.346;2023-11-19T12:15:02;27.88;;;9.68;;
24337;SDS011;12457;50.832;4.346;2023-11-19T12:20:06;23.40;;;4.93;;
24337;SDS011;12457;50.832;4.346;2023-11-19T12:22:37;20.35;;;3.88;;
24337;SDS011;12457;50.832;4.346;2023-11-19T12:25:07;24.35;;;5.00;;
24337;SDS011;12457;50.832;4.346;2023-11-19T12:27:34;26.85;;;4.78;;
24337;SDS011;12457;50.832;4.346;2023-11-19T12:30:08;25.15;;;4.63;;
24337;SDS011;12457;50.832;4.346;2023-11-19T12:32:37;22.38;;;4.63;;
24337;SDS011;12457;50.832;4.346;2023-11-19T12:35:07;32.60;;;5.03;;
24337;SDS011;12457;50.832;4.346;2023-11-19T12:37:43;21.30;;;5.95;;
24337;SDS011;12457;50.832;4.346;2023-11-19T12:42:45;22.02;;;4.90;;
24337;SDS011;12457;50.832;4.346;2023-11-19T12:45:20;29.08;;;6.43;;
24337;SDS011;12457;50.832;4.346;2023-11-19T12:47:47;28.98;;;5.90;;
24337;SDS011;12457;50.832;4.346;2023-11-19T12:50:14;29.77;;;5.28;;
24337;SDS011;12457;50.832;4.346;2023-11-19T12:52:42;27.00;;;6.47;;
24337;SDS011;12457;50.832;4.346;2023-11-19T12:55:26;28.40;;;5.53;;
24337;SDS011;12457;50.832;4.346;2023-11-19T12:57:54;28.38;;;5.85;;
24337;SDS011;12457;50.832;4.346;2023-11-19T13:00:24;24.75;;;5.15;;
24337;SDS011;12457;50.832;4.346;2023-11-19T13:02:51;27.55;;;4.63;;
24337;SDS011;12457;50.832;4.346;2023-11-19T13:05:26;32.90;;;6.32;;
24337;SDS011;12457;50.832;4.346;2023-11-19T13:08:03;36.35;;;9.80;;
24337;SDS011;12457;50.832;4.346;2023-11-19T13:13:20;33.28;;;10.55;;
24337;SDS011;12457;50.832;4.346;2023-11-19T13:16:04;40.28;;;10.60;;
24337;SDS011;12457;50.832;4.346;2023-11-19T13:18:31;30.40;;;5.05;;
24337;SDS011;12457;50.832;4.346;2023-11-19T13:20:57;29.50;;;5.75;;
24337;SDS011;12457;50.832;4.346;2023-11-19T13:23:23;39.83;;;8.88;;
24337;SDS011;12457;50.832;4.346;2023-11-19T13:25:49;27.17;;;4.30;;
24337;SDS011;12457;50.832;4.346;2023-11-19T13:28:14;33.13;;;6.90;;
24337;SDS011;12457;50.832;4.346;2023-11-19T13:30:40;22.60;;;5.43;;
24337;SDS011;12457;50.832;4.346;2023-11-19T13:33:06;29.70;;;5.55;;
24337;SDS011;12457;50.832;4.346;2023-11-19T13:35:31;34.40;;;5.22;;
24337;SDS011;12457;50.832;4.346;2023-11-19T13:37:57;39.70;;;8.15;;
24337;SDS011;12457;50.832;4.346;2023-11-19T13:40:23;30.88;;;7.80;;
24337;SDS011;12457;50.832;4.346;2023-11-19T13:42:50;28.52;;;5.00;;
24337;SDS011;12457;50.832;4.346;2023-11-19T13:45:16;38.20;;;8.02;;
24337;SDS011;12457;50.832;4.346;2023-11-19T13:47:43;29.70;;;5.72;;
24337;SDS011;12457;50.832;4.346;2023-11-19T13:50:15;29.70;;;8.48;;
24337;SDS011;12457;50.832;4.346;2023-11-19T13:52:44;37.80;;;7.50;;
24337;SDS011;12457;50.832;4.346;2023-11-19T13:55:12;32.40;;;7.97;;
24337;SDS011;12457;50.832;4.346;2023-11-19T13:57:39;32.22;;;5.78;;
24337;SDS011;12457;50.832;4.346;2023-11-19T14:00:06;29.00;;;5.85;;
24337;SDS011;12457;50.832;4.346;2023-11-19T14:02:53;45.17;;;15.65;;
24337;SDS011;12457;50.832;4.346;2023-11-19T14:05:20;50.63;;;16.60;;
24337;SDS011;12457;50.832;4.346;2023-11-19T14:07:46;31.95;;;5.85;;
24337;SDS011;12457;50.832;4.346;2023-11-19T14:10:14;36.15;;;9.75;;
24337;SDS011;12457;50.832;4.346;2023-11-19T14:12:42;40.50;;;10.38;;
24337;SDS011;12457;50.832;4.346;2023-11-19T14:15:08;37.90;;;6.80;;
24337;SDS011;12457;50.832;4.346;2023-11-19T14:17:40;32.35;;;5.68;;
24337;SDS011;12457;50.832;4.346;2023-11-19T14:20:06;36.20;;;6.05;;
24337;SDS011;12457;50.832;4.346;2023-11-19T14:25:08;28.65;;;4.70;;
24337;SDS011;12457;50.832;4.346;2023-11-19T14:27:37;28.92;;;5.80;;
24337;SDS011;12457;50.832;4.346;2023-11-19T14:30:05;32.15;;;5.20;;
24337;SDS011;12457;50.832;4.346;2023-11-19T14:32:32;39.13;;;5.65;;
24337;SDS011;12457;50.832;4.346;2023-11-19T14:34:58;32.63;;;5.30;;
24337;SDS011;12457;50.832;4.346;2023-11-19T14:37:23;38.28;;;6.47;;
24337;SDS011;12457;50.832;4.346;2023-11-19T14:39:49;35.40;;;5.85;;
24337;SDS011;12457;50.832;4.346;2023-11-19T14:42:16;39.25;;;8.75;;
24337;SDS011;12457;50.832;4.346;2023-11-19T14:44:44;55.67;;;15.35;;
24337;SDS011;12457;50.832;4.346;2023-11-19T14:47:14;41.42;;;6.32;;
24337;SDS011;12457;50.832;4.346;2023-11-19T14:49:41;32.40;;;6.13;;
24337;SDS011;12457;50.832;4.346;2023-11-19T14:52:07;33.78;;;5.55;;
24337;SDS011;12457;50.832;4.346;2023-11-19T14:54:33;36.50;;;5.75;;
24337;SDS011;12457;50.832;4.346;2023-11-19T14:56:59;31.80;;;5.07;;
24337;SDS011;12457;50.832;4.346;2023-11-19T14:59:26;36.92;;;5.90;;
24337;SDS011;12457;50.832;4.346;2023-11-19T15:01:51;24.23;;;4.43;;
24337;SDS011;12457;50.832;4.346;2023-11-19T15:04:17;35.08;;;5.18;;
24337;SDS011;12457;50.832;4.346;2023-11-19T15:06:45;34.60;;;5.45;;
24337;SDS011;12457;50.832;4.346;2023-11-19T15:09:11;29.55;;;4.72;;
24337;SDS011;12457;50.832;4.346;2023-11-19T15:11:42;31.58;;;5.22;;
24337;SDS011;12457;50.832;4.346;2023-11-19T15:14:11;31.98;;;5.55;;
24337;SDS011;12457;50.832;4.346;2023-11-19T15:16:42;37.92;;;5.82;;
24337;SDS011;12457;50.832;4.346;2023-11-19T15:19:08;31.77;;;5.32;;